sensor_id;sensor_type;location;lat;lon;timestamp;P1;durP1;ratioP1;P2;durP2;ratioP2
3343;SDS011;1685;53.104;8.228;2023-03-14T00:02:25;20.60;;;4.10;;
3343;SDS011;1685;53.104;8.228;2023-03-14T00:04:53;23.23;;;5.17;;
3343;SDS011;1685;53.104;8.228;2023-03-14T00:07:21;10.70;;;4.10;;
3343;SDS011;1685;53.104;8.228;2023-03-14T00:09:49;29.70;;;5.33;;
3343;SDS011;1685;53.104;8.228;2023-03-14T00:12:18;22.23;;;4.17;;
3343;SDS011;1685;53.104;8.228;2023-03-14T00:14:44;22.80;;;5.27;;
3343;SDS011;1685;53.104;8.228;2023-03-14T00:17:11;23.43;;;4.77;;
3343;SDS011;1685;53.104;8.228;2023-03-14T00:19:39;12.97;;;4.50;;
3343;SDS011;1685;53.104;8.228;2023-03-14T00:22:06;21.33;;;4.60;;
3343;SDS011;1685;53.104;8.228;2023-03-14T00:24:33;22.07;;;6.37;;
3343;SDS011;1685;53.104;8.228;2023-03-14T00:27:00;16.40;;;5.00;;
3343;SDS011;1685;53.104;8.228;2023-03-14T00:29:28;11.77;;;3.90;;
3343;SDS011;1685;53.104;8.228;2023-03-14T00:31:55;14.20;;;3.90;;
3343;SDS011;1685;53.104;8.228;2023-03-14T00:34:22;22.33;;;4.30;;
3343;SDS011;1685;53.104;8.228;2023-03-14T00:36:49;17.70;;;3.83;;
3343;SDS011;1685;53.104;8.228;2023-03-14T00:39:16;12.07;;;3.20;;
3343;SDS011;1685;53.104;8.228;2023-03-14T00:41:43;11.70;;;4.30;;
3343;SDS011;1685;53.104;8.228;2023-03-14T00:44:10;10.70;;;3.93;;
3343;SDS011;1685;53.104;8.228;2023-03-14T00:46:39;11.27;;;3.30;;
3343;SDS011;1685;53.104;8.228;2023-03-14T00:49:06;12.97;;;3.40;;
3343;SDS011;1685;53.104;8.228;2023-03-14T00:51:33;7.97;;;4.27;;
3343;SDS011;1685;53.104;8.228;2023-03-14T00:54:00;11.17;;;4.20;;
3343;SDS011;1685;53.104;8.228;2023-03-14T00:56:27;10.43;;;2.70;;
3343;SDS011;1685;53.104;8.228;2023-03-14T00:58:54;10.17;;;3.50;;
3343;SDS011;1685;53.104;8.228;2023-03-14T01:01:22;12.33;;;3.43;;
3343;SDS011;1685;53.104;8.228;2023-03-14T01:03:51;8.97;;;3.60;;
3343;SDS011;1685;53.104;8.228;2023-03-14T01:06:19;9.10;;;3.90;;
3343;SDS011;1685;53.104;8.228;2023-03-14T01:08:47;9.63;;;3.30;;
3343;SDS011;1685;53.104;8.228;2023-03-14T01:11:16;18.33;;;4.17;;
3343;SDS011;1685;53.104;8.228;2023-03-14T01:13:44;10.80;;;4.53;;
3343;SDS011;1685;53.104;8.228;2023-03-14T01:16:12;9.70;;;3.53;;
3343;SDS011;1685;53.104;8.228;2023-03-14T01:18:39;13.00;;;3.93;;
3343;SDS011;1685;53.104;8.228;2023-03-14T01:21:10;6.87;;;3.10;;
3343;SDS011;1685;53.104;8.228;2023-03-14T01:23:38;10.87;;;4.40;;
3343;SDS011;1685;53.104;8.228;2023-03-14T01:26:07;4.87;;;3.23;;
3343;SDS011;1685;53.104;8.228;2023-03-14T01:28:35;15.23;;;4.07;;
3343;SDS011;1685;53.104;8.228;2023-03-14T01:31:02;8.60;;;3.77;;
3343;SDS011;1685;53.104;8.228;2023-03-14T01:33:30;5.67;;;4.30;;
3343;SDS011;1685;53.104;8.228;2023-03-14T01:35:57;12.40;;;4.20;;
3343;SDS011;1685;53.104;8.228;2023-03-14T01:38:25;11.83;;;4.00;;
3343;SDS011;1685;53.104;8.228;2023-03-14T01:40:52;9.43;;;4.63;;
3343;SDS011;1685;53.104;8.228;2023-03-14T01:43:19;13.57;;;4.87;;
3343;SDS011;1685;53.104;8.228;2023-03-14T01:46:06;13.87;;;4.47;;
3343;SDS011;1685;53.104;8.228;2023-03-14T01:48:55;9.13;;;4.53;;
3343;SDS011;1685;53.104;8.228;2023-03-14T01:51:27;7.53;;;3.80;;
3343;SDS011;1685;53.104;8.228;2023-03-14T01:54:01;7.77;;;5.13;;
3343;SDS011;1685;53.104;8.228;2023-03-14T01:56:31;14.30;;;5.27;;
3343;SDS011;1685;53.104;8.228;2023-03-14T01:58:59;9.37;;;4.40;;
3343;SDS011;1685;53.104;8.228;2023-03-14T02:01:30;11.13;;;4.67;;
3343;SDS011;1685;53.104;8.228;2023-03-14T02:03:57;10.60;;;4.10;;
3343;SDS011;1685;53.104;8.228;2023-03-14T02:06:29;10.87;;;4.83;;
3343;SDS011;1685;53.104;8.228;2023-03-14T02:09:03;10.77;;;4.70;;
3343;SDS011;1685;53.104;8.228;2023-03-14T02:11:30;6.70;;;4.17;;
3343;SDS011;1685;53.104;8.228;2023-03-14T02:13:57;6.73;;;4.60;;
3343;SDS011;1685;53.104;8.228;2023-03-14T02:16:25;8.67;;;4.07;;
3343;SDS011;1685;53.104;8.228;2023-03-14T02:18:52;11.70;;;4.03;;
3343;SDS011;1685;53.104;8.228;2023-03-14T02:21:20;6.00;;;3.90;;
3343;SDS011;1685;53.104;8.228;2023-03-14T02:23:53;9.27;;;3.70;;
3343;SDS011;1685;53.104;8.228;2023-03-14T02:26:30;5.10;;;3.87;;
3343;SDS011;1685;53.104;8.228;2023-03-14T02:29:04;11.27;;;4.30;;
3343;SDS011;1685;53.104;8.228;2023-03-14T02:31:31;7.70;;;4.10;;
3343;SDS011;1685;53.104;8.228;2023-03-14T02:33:58;9.70;;;3.77;;
3343;SDS011;1685;53.104;8.228;2023-03-14T02:36:26;7.37;;;3.30;;
3343;SDS011;1685;53.104;8.228;2023-03-14T02:38:55;4.23;;;3.70;;
3343;SDS011;1685;53.104;8.228;2023-03-14T02:41:28;9.57;;;3.70;;
3343;SDS011;1685;53.104;8.228;2023-03-14T02:43:55;7.17;;;3.40;;
3343;SDS011;1685;53.104;8.228;2023-03-14T02:46:24;13.57;;;3.43;;
3343;SDS011;1685;53.104;8.228;2023-03-14T02:48:51;7.77;;;3.63;;
3343;SDS011;1685;53.104;8.228;2023-03-14T02:51:23;11.77;;;3.77;;
3343;SDS011;1685;53.104;8.228;2023-03-14T02:53:51;16.63;;;3.80;;
3343;SDS011;1685;53.104;8.228;2023-03-14T02:56:18;10.53;;;3.80;;
3343;SDS011;1685;53.104;8.228;2023-03-14T02:58:45;6.97;;;2.27;;
3343;SDS011;1685;53.104;8.228;2023-03-14T03:01:13;4.70;;;2.13;;
3343;SDS011;1685;53.104;8.228;2023-03-14T03:03:41;4.73;;;1.80;;
3343;SDS011;1685;53.104;8.228;2023-03-14T03:06:09;8.43;;;2.80;;
3343;SDS011;1685;53.104;8.228;2023-03-14T03:08:36;6.60;;;1.60;;
3343;SDS011;1685;53.104;8.228;2023-03-14T03:11:03;5.87;;;1.70;;
3343;SDS011;1685;53.104;8.228;2023-03-14T03:13:30;3.90;;;1.70;;
3343;SDS011;1685;53.104;8.228;2023-03-14T03:15:57;4.03;;;1.67;;
3343;SDS011;1685;53.104;8.228;2023-03-14T03:18:24;5.67;;;1.33;;
3343;SDS011;1685;53.104;8.228;2023-03-14T03:20:53;3.77;;;1.80;;
3343;SDS011;1685;53.104;8.228;2023-03-14T03:23:20;5.77;;;1.60;;
3343;SDS011;1685;53.104;8.228;2023-03-14T03:25:50;4.60;;;1.30;;
3343;SDS011;1685;53.104;8.228;2023-03-14T03:28:17;5.60;;;1.77;;
3343;SDS011;1685;53.104;8.228;2023-03-14T03:30:44;2.77;;;1.53;;
3343;SDS011;1685;53.104;8.228;2023-03-14T03:33:11;4.33;;;2.20;;
3343;SDS011;1685;53.104;8.228;2023-03-14T03:35:42;3.23;;;1.87;;
3343;SDS011;1685;53.104;8.228;2023-03-14T03:38:12;7.17;;;1.90;;
3343;SDS011;1685;53.104;8.228;2023-03-14T03:40:39;5.50;;;1.87;;
3343;SDS011;1685;53.104;8.228;2023-03-14T03:43:06;9.27;;;2.60;;
3343;SDS011;1685;53.104;8.228;2023-03-14T03:45:33;7.63;;;2.80;;
3343;SDS011;1685;53.104;8.228;2023-03-14T03:48:00;8.43;;;2.60;;
3343;SDS011;1685;53.104;8.228;2023-03-14T03:50:27;7.73;;;3.13;;
3343;SDS011;1685;53.104;8.228;2023-03-14T03:52:55;8.43;;;3.23;;
3343;SDS011;1685;53.104;8.228;2023-03-14T03:55:23;18.43;;;4.00;;
3343;SDS011;1685;53.104;8.228;2023-03-14T03:57:50;10.63;;;3.93;;
3343;SDS011;1685;53.104;8.228;2023-03-14T04:00:18;5.27;;;3.73;;
3343;SDS011;1685;53.104;8.228;2023-03-14T04:02:45;8.50;;;3.50;;
3343;SDS011;1685;53.104;8.228;2023-03-14T04:05:12;6.83;;;3.73;;
3343;SDS011;1685;53.104;8.228;2023-03-14T04:07:39;11.37;;;4.03;;
3343;SDS011;1685;53.104;8.228;2023-03-14T04:10:07;4.33;;;3.10;;
3343;SDS011;1685;53.104;8.228;2023-03-14T04:12:35;10.30;;;4.40;;
3343;SDS011;1685;53.104;8.228;2023-03-14T04:15:02;9.90;;;4.50;;
3343;SDS011;1685;53.104;8.228;2023-03-14T04:17:29;6.20;;;4.77;;
3343;SDS011;1685;53.104;8.228;2023-03-14T04:19:56;11.00;;;4.70;;
3343;SDS011;1685;53.104;8.228;2023-03-14T04:22:23;10.00;;;3.90;;
3343;SDS011;1685;53.104;8.228;2023-03-14T04:24:50;5.20;;;4.43;;
3343;SDS011;1685;53.104;8.228;2023-03-14T04:27:18;3.33;;;3.03;;
3343;SDS011;1685;53.104;8.228;2023-03-14T04:29:46;9.90;;;4.87;;
3343;SDS011;1685;53.104;8.228;2023-03-14T04:32:13;6.93;;;3.50;;
3343;SDS011;1685;53.104;8.228;2023-03-14T04:34:40;6.00;;;3.33;;
3343;SDS011;1685;53.104;8.228;2023-03-14T04:37:07;3.63;;;2.90;;
3343;SDS011;1685;53.104;8.228;2023-03-14T04:39:34;2.30;;;2.10;;
3343;SDS011;1685;53.104;8.228;2023-03-14T04:42:02;3.97;;;2.20;;
3343;SDS011;1685;53.104;8.228;2023-03-14T04:44:29;9.33;;;2.67;;
3343;SDS011;1685;53.104;8.228;2023-03-14T04:46:57;3.80;;;1.97;;
3343;SDS011;1685;53.104;8.228;2023-03-14T04:49:24;10.93;;;2.17;;
3343;SDS011;1685;53.104;8.228;2023-03-14T04:51:51;10.80;;;2.90;;
3343;SDS011;1685;53.104;8.228;2023-03-14T04:54:18;5.03;;;2.70;;
3343;SDS011;1685;53.104;8.228;2023-03-14T04:56:45;6.97;;;2.20;;
3343;SDS011;1685;53.104;8.228;2023-03-14T04:59:12;6.37;;;2.37;;
3343;SDS011;1685;53.104;8.228;2023-03-14T05:01:39;2.53;;;2.30;;
3343;SDS011;1685;53.104;8.228;2023-03-14T05:04:08;5.20;;;2.50;;
3343;SDS011;1685;53.104;8.228;2023-03-14T05:06:35;4.83;;;2.33;;
3343;SDS011;1685;53.104;8.228;2023-03-14T05:09:03;7.10;;;2.90;;
3343;SDS011;1685;53.104;8.228;2023-03-14T05:11:30;4.97;;;2.60;;
3343;SDS011;1685;53.104;8.228;2023-03-14T05:13:58;9.77;;;3.10;;
3343;SDS011;1685;53.104;8.228;2023-03-14T05:16:25;5.27;;;2.63;;
3343;SDS011;1685;53.104;8.228;2023-03-14T05:18:52;10.20;;;2.87;;
3343;SDS011;1685;53.104;8.228;2023-03-14T05:21:21;3.37;;;2.70;;
3343;SDS011;1685;53.104;8.228;2023-03-14T05:23:47;4.80;;;2.70;;
3343;SDS011;1685;53.104;8.228;2023-03-14T05:26:14;9.80;;;3.50;;
3343;SDS011;1685;53.104;8.228;2023-03-14T05:28:42;10.70;;;3.33;;
3343;SDS011;1685;53.104;8.228;2023-03-14T05:31:09;14.43;;;3.03;;
3343;SDS011;1685;53.104;8.228;2023-03-14T05:33:36;4.60;;;2.57;;
3343;SDS011;1685;53.104;8.228;2023-03-14T05:36:04;4.90;;;3.10;;
3343;SDS011;1685;53.104;8.228;2023-03-14T05:38:33;7.07;;;2.67;;
3343;SDS011;1685;53.104;8.228;2023-03-14T05:40:59;5.50;;;2.80;;
3343;SDS011;1685;53.104;8.228;2023-03-14T05:43:26;9.87;;;2.97;;
3343;SDS011;1685;53.104;8.228;2023-03-14T05:45:53;9.83;;;2.80;;
3343;SDS011;1685;53.104;8.228;2023-03-14T05:48:21;5.90;;;2.37;;
3343;SDS011;1685;53.104;8.228;2023-03-14T05:50:48;8.43;;;2.63;;
3343;SDS011;1685;53.104;8.228;2023-03-14T05:53:15;9.80;;;3.40;;
3343;SDS011;1685;53.104;8.228;2023-03-14T05:55:43;5.53;;;2.47;;
3343;SDS011;1685;53.104;8.228;2023-03-14T05:58:10;6.83;;;2.97;;
3343;SDS011;1685;53.104;8.228;2023-03-14T06:00:37;6.90;;;3.23;;
3343;SDS011;1685;53.104;8.228;2023-03-14T06:03:04;3.57;;;3.17;;
3343;SDS011;1685;53.104;8.228;2023-03-14T06:05:31;5.77;;;3.53;;
3343;SDS011;1685;53.104;8.228;2023-03-14T06:07:58;7.20;;;4.17;;
3343;SDS011;1685;53.104;8.228;2023-03-14T06:10:25;11.57;;;2.93;;
3343;SDS011;1685;53.104;8.228;2023-03-14T06:12:54;10.00;;;3.77;;
3343;SDS011;1685;53.104;8.228;2023-03-14T06:15:21;5.63;;;3.53;;
3343;SDS011;1685;53.104;8.228;2023-03-14T06:17:48;5.77;;;3.20;;
3343;SDS011;1685;53.104;8.228;2023-03-14T06:20:15;7.20;;;3.60;;
3343;SDS011;1685;53.104;8.228;2023-03-14T06:22:42;5.63;;;3.33;;
3343;SDS011;1685;53.104;8.228;2023-03-14T06:25:09;7.50;;;3.57;;
3343;SDS011;1685;53.104;8.228;2023-03-14T06:27:36;9.60;;;4.50;;
3343;SDS011;1685;53.104;8.228;2023-03-14T06:30:05;6.37;;;3.90;;
3343;SDS011;1685;53.104;8.228;2023-03-14T06:32:33;8.87;;;4.50;;
3343;SDS011;1685;53.104;8.228;2023-03-14T06:35:00;8.03;;;3.60;;
3343;SDS011;1685;53.104;8.228;2023-03-14T06:37:27;5.93;;;3.50;;
3343;SDS011;1685;53.104;8.228;2023-03-14T06:39:54;9.70;;;4.10;;
3343;SDS011;1685;53.104;8.228;2023-03-14T06:42:21;5.23;;;4.07;;
3343;SDS011;1685;53.104;8.228;2023-03-14T06:44:49;8.60;;;2.90;;
3343;SDS011;1685;53.104;8.228;2023-03-14T06:47:17;9.47;;;3.20;;
3343;SDS011;1685;53.104;8.228;2023-03-14T06:49:44;9.23;;;3.80;;
3343;SDS011;1685;53.104;8.228;2023-03-14T06:52:11;5.27;;;3.43;;
3343;SDS011;1685;53.104;8.228;2023-03-14T06:54:38;11.77;;;3.63;;
3343;SDS011;1685;53.104;8.228;2023-03-14T06:57:05;8.73;;;4.20;;
3343;SDS011;1685;53.104;8.228;2023-03-14T06:59:32;7.07;;;3.80;;
3343;SDS011;1685;53.104;8.228;2023-03-14T07:01:59;3.97;;;2.23;;
3343;SDS011;1685;53.104;8.228;2023-03-14T07:04:27;17.20;;;3.37;;
3343;SDS011;1685;53.104;8.228;2023-03-14T07:06:54;8.70;;;3.40;;
3343;SDS011;1685;53.104;8.228;2023-03-14T07:09:21;7.30;;;3.10;;
3343;SDS011;1685;53.104;8.228;2023-03-14T07:11:48;5.57;;;2.67;;
3343;SDS011;1685;53.104;8.228;2023-03-14T07:14:15;9.50;;;3.10;;
3343;SDS011;1685;53.104;8.228;2023-03-14T07:16:42;7.97;;;3.33;;
3343;SDS011;1685;53.104;8.228;2023-03-14T07:19:10;8.60;;;3.00;;
3343;SDS011;1685;53.104;8.228;2023-03-14T07:21:38;8.57;;;3.40;;
3343;SDS011;1685;53.104;8.228;2023-03-14T07:24:05;14.40;;;3.50;;
3343;SDS011;1685;53.104;8.228;2023-03-14T07:26:32;7.80;;;3.10;;
3343;SDS011;1685;53.104;8.228;2023-03-14T07:28:59;9.03;;;2.93;;
3343;SDS011;1685;53.104;8.228;2023-03-14T07:31:28;5.37;;;2.70;;
3343;SDS011;1685;53.104;8.228;2023-03-14T07:33:55;11.13;;;3.00;;
3343;SDS011;1685;53.104;8.228;2023-03-14T07:36:22;5.20;;;2.70;;
3343;SDS011;1685;53.104;8.228;2023-03-14T07:38:51;7.23;;;3.70;;
3343;SDS011;1685;53.104;8.228;2023-03-14T07:41:17;5.47;;;3.07;;
3343;SDS011;1685;53.104;8.228;2023-03-14T07:43:45;3.93;;;2.70;;
3343;SDS011;1685;53.104;8.228;2023-03-14T07:46:12;8.87;;;2.97;;
3343;SDS011;1685;53.104;8.228;2023-03-14T07:48:40;8.77;;;2.80;;
3343;SDS011;1685;53.104;8.228;2023-03-14T07:51:07;5.70;;;2.50;;
3343;SDS011;1685;53.104;8.228;2023-03-14T07:53:34;5.47;;;2.60;;
3343;SDS011;1685;53.104;8.228;2023-03-14T07:56:03;6.70;;;3.03;;
3343;SDS011;1685;53.104;8.228;2023-03-14T07:58:30;8.47;;;3.17;;
3343;SDS011;1685;53.104;8.228;2023-03-14T08:00:57;6.30;;;2.67;;
3343;SDS011;1685;53.104;8.228;2023-03-14T08:03:24;18.03;;;5.37;;
3343;SDS011;1685;53.104;8.228;2023-03-14T08:05:52;7.27;;;3.27;;
3343;SDS011;1685;53.104;8.228;2023-03-14T08:08:19;7.33;;;3.80;;
3343;SDS011;1685;53.104;8.228;2023-03-14T08:10:46;10.67;;;3.10;;
3343;SDS011;1685;53.104;8.228;2023-03-14T08:13:14;6.07;;;2.83;;
3343;SDS011;1685;53.104;8.228;2023-03-14T08:15:41;8.93;;;2.80;;
3343;SDS011;1685;53.104;8.228;2023-03-14T08:18:08;5.57;;;2.57;;
3343;SDS011;1685;53.104;8.228;2023-03-14T08:20:35;10.50;;;2.93;;
3343;SDS011;1685;53.104;8.228;2023-03-14T08:23:03;11.97;;;3.13;;
3343;SDS011;1685;53.104;8.228;2023-03-14T08:25:30;10.27;;;2.37;;
3343;SDS011;1685;53.104;8.228;2023-03-14T08:27:57;3.27;;;2.30;;
3343;SDS011;1685;53.104;8.228;2023-03-14T08:30:25;4.33;;;2.30;;
3343;SDS011;1685;53.104;8.228;2023-03-14T08:32:52;3.70;;;2.47;;
3343;SDS011;1685;53.104;8.228;2023-03-14T08:35:19;8.80;;;2.80;;
3343;SDS011;1685;53.104;8.228;2023-03-14T08:37:46;4.07;;;2.70;;
3343;SDS011;1685;53.104;8.228;2023-03-14T08:40:13;10.43;;;3.50;;
3343;SDS011;1685;53.104;8.228;2023-03-14T08:42:42;4.10;;;1.60;;
3343;SDS011;1685;53.104;8.228;2023-03-14T08:45:10;3.23;;;1.50;;
3343;SDS011;1685;53.104;8.228;2023-03-14T08:47:39;1.93;;;1.30;;
3343;SDS011;1685;53.104;8.228;2023-03-14T08:50:06;1.20;;;1.20;;
3343;SDS011;1685;53.104;8.228;2023-03-14T08:52:34;3.33;;;1.40;;
3343;SDS011;1685;53.104;8.228;2023-03-14T08:55:02;2.50;;;1.30;;
3343;SDS011;1685;53.104;8.228;2023-03-14T08:57:30;2.93;;;1.17;;
3343;SDS011;1685;53.104;8.228;2023-03-14T08:59:57;3.60;;;1.23;;
3343;SDS011;1685;53.104;8.228;2023-03-14T09:02:24;2.13;;;1.10;;
3343;SDS011;1685;53.104;8.228;2023-03-14T09:04:53;1.47;;;1.27;;
3343;SDS011;1685;53.104;8.228;2023-03-14T09:07:20;3.33;;;1.60;;
3343;SDS011;1685;53.104;8.228;2023-03-14T09:09:47;3.53;;;1.10;;
3343;SDS011;1685;53.104;8.228;2023-03-14T09:12:14;5.30;;;1.00;;
3343;SDS011;1685;53.104;8.228;2023-03-14T09:14:41;1.00;;;0.90;;
3343;SDS011;1685;53.104;8.228;2023-03-14T09:17:08;1.47;;;0.90;;
3343;SDS011;1685;53.104;8.228;2023-03-14T09:19:35;1.43;;;1.00;;
3343;SDS011;1685;53.104;8.228;2023-03-14T09:22:03;0.90;;;0.90;;
3343;SDS011;1685;53.104;8.228;2023-03-14T09:24:30;1.70;;;1.13;;
3343;SDS011;1685;53.104;8.228;2023-03-14T09:26:57;1.97;;;1.10;;
3343;SDS011;1685;53.104;8.228;2023-03-14T09:29:25;0.70;;;0.70;;
3343;SDS011;1685;53.104;8.228;2023-03-14T09:31:52;3.30;;;0.80;;
3343;SDS011;1685;53.104;8.228;2023-03-14T09:34:19;5.20;;;4.67;;
3343;SDS011;1685;53.104;8.228;2023-03-14T09:36:46;14.10;;;12.57;;
3343;SDS011;1685;53.104;8.228;2023-03-14T09:39:15;6.27;;;5.70;;
3343;SDS011;1685;53.104;8.228;2023-03-14T09:41:43;6.50;;;6.00;;
3343;SDS011;1685;53.104;8.228;2023-03-14T09:44:13;6.37;;;3.80;;
3343;SDS011;1685;53.104;8.228;2023-03-14T09:46:42;4.00;;;3.80;;
3343;SDS011;1685;53.104;8.228;2023-03-14T09:49:14;3.23;;;3.13;;
3343;SDS011;1685;53.104;8.228;2023-03-14T09:51:46;2.30;;;2.07;;
3343;SDS011;1685;53.104;8.228;2023-03-14T09:54:21;4.10;;;1.93;;
3343;SDS011;1685;53.104;8.228;2023-03-14T09:56:57;0.70;;;0.60;;
3343;SDS011;1685;53.104;8.228;2023-03-14T09:59:24;1.40;;;1.23;;
3343;SDS011;1685;53.104;8.228;2023-03-14T10:01:51;5.90;;;3.37;;
3343;SDS011;1685;53.104;8.228;2023-03-14T10:04:20;1.90;;;1.40;;
3343;SDS011;1685;53.104;8.228;2023-03-14T10:06:49;2.70;;;0.95;;
3343;SDS011;1685;53.104;8.228;2023-03-14T10:09:19;1.40;;;1.40;;
3343;SDS011;1685;53.104;8.228;2023-03-14T10:11:51;1.90;;;0.68;;
3343;SDS011;1685;53.104;8.228;2023-03-14T10:14:28;0.90;;;0.90;;
3343;SDS011;1685;53.104;8.228;2023-03-14T10:17:04;2.87;;;1.10;;
3343;SDS011;1685;53.104;8.228;2023-03-14T10:19:32;2.03;;;1.20;;
3343;SDS011;1685;53.104;8.228;2023-03-14T10:22:01;1.03;;;1.03;;
3343;SDS011;1685;53.104;8.228;2023-03-14T10:24:31;3.53;;;1.60;;
3343;SDS011;1685;53.104;8.228;2023-03-14T10:27:00;1.37;;;1.27;;
3343;SDS011;1685;53.104;8.228;2023-03-14T10:29:29;1.50;;;1.10;;
3343;SDS011;1685;53.104;8.228;2023-03-14T10:32:00;1.77;;;1.60;;
3343;SDS011;1685;53.104;8.228;2023-03-14T10:34:29;2.40;;;1.07;;
3343;SDS011;1685;53.104;8.228;2023-03-14T10:36:58;2.30;;;1.20;;
3343;SDS011;1685;53.104;8.228;2023-03-14T10:39:36;4.83;;;2.30;;
3343;SDS011;1685;53.104;8.228;2023-03-14T10:42:12;2.10;;;1.20;;
3343;SDS011;1685;53.104;8.228;2023-03-14T10:44:42;3.33;;;1.63;;
3343;SDS011;1685;53.104;8.228;2023-03-14T10:47:15;5.67;;;1.57;;
3343;SDS011;1685;53.104;8.228;2023-03-14T10:49:44;4.43;;;1.60;;
3343;SDS011;1685;53.104;8.228;2023-03-14T10:52:15;3.40;;;2.00;;
3343;SDS011;1685;53.104;8.228;2023-03-14T10:54:49;5.83;;;1.53;;
3343;SDS011;1685;53.104;8.228;2023-03-14T10:57:21;7.10;;;1.70;;
3343;SDS011;1685;53.104;8.228;2023-03-14T10:59:48;10.00;;;1.50;;
3343;SDS011;1685;53.104;8.228;2023-03-14T11:02:20;8.53;;;2.03;;
3343;SDS011;1685;53.104;8.228;2023-03-14T11:05:01;9.00;;;2.27;;
3343;SDS011;1685;53.104;8.228;2023-03-14T11:07:38;17.73;;;2.37;;
3343;SDS011;1685;53.104;8.228;2023-03-14T11:10:10;12.40;;;2.33;;
3343;SDS011;1685;53.104;8.228;2023-03-14T11:12:46;12.27;;;2.17;;
3343;SDS011;1685;53.104;8.228;2023-03-14T11:15:27;9.40;;;2.30;;
3343;SDS011;1685;53.104;8.228;2023-03-14T11:18:07;7.77;;;2.27;;
3343;SDS011;1685;53.104;8.228;2023-03-14T11:20:50;14.03;;;2.90;;
3343;SDS011;1685;53.104;8.228;2023-03-14T11:23:22;16.33;;;2.40;;
3343;SDS011;1685;53.104;8.228;2023-03-14T11:25:56;12.37;;;3.07;;
3343;SDS011;1685;53.104;8.228;2023-03-14T11:28:28;18.10;;;2.67;;
3343;SDS011;1685;53.104;8.228;2023-03-14T11:31:03;13.20;;;2.40;;
3343;SDS011;1685;53.104;8.228;2023-03-14T11:33:41;13.63;;;3.27;;
3343;SDS011;1685;53.104;8.228;2023-03-14T11:36:18;11.70;;;2.47;;
3343;SDS011;1685;53.104;8.228;2023-03-14T11:38:48;6.67;;;2.53;;
3343;SDS011;1685;53.104;8.228;2023-03-14T11:41:17;14.07;;;2.80;;
3343;SDS011;1685;53.104;8.228;2023-03-14T11:43:47;12.30;;;3.10;;
3343;SDS011;1685;53.104;8.228;2023-03-14T11:46:16;20.30;;;2.67;;
3343;SDS011;1685;53.104;8.228;2023-03-14T11:48:50;18.13;;;2.90;;
3343;SDS011;1685;53.104;8.228;2023-03-14T11:51:25;33.10;;;3.53;;
3343;SDS011;1685;53.104;8.228;2023-03-14T11:53:57;13.67;;;3.20;;
3343;SDS011;1685;53.104;8.228;2023-03-14T11:56:31;15.93;;;3.20;;
3343;SDS011;1685;53.104;8.228;2023-03-14T11:59:03;14.30;;;3.37;;
3343;SDS011;1685;53.104;8.228;2023-03-14T12:01:34;16.23;;;3.40;;
3343;SDS011;1685;53.104;8.228;2023-03-14T12:04:12;18.60;;;3.17;;
3343;SDS011;1685;53.104;8.228;2023-03-14T12:06:46;15.00;;;2.93;;
3343;SDS011;1685;53.104;8.228;2023-03-14T12:09:15;22.80;;;3.20;;
3343;SDS011;1685;53.104;8.228;2023-03-14T12:11:46;10.73;;;2.70;;
3343;SDS011;1685;53.104;8.228;2023-03-14T12:14:18;18.37;;;2.67;;
3343;SDS011;1685;53.104;8.228;2023-03-14T12:16:48;10.23;;;2.40;;
3343;SDS011;1685;53.104;8.228;2023-03-14T12:19:25;5.83;;;2.20;;
3343;SDS011;1685;53.104;8.228;2023-03-14T12:21:54;21.27;;;3.57;;
3343;SDS011;1685;53.104;8.228;2023-03-14T12:24:24;11.83;;;2.50;;
3343;SDS011;1685;53.104;8.228;2023-03-14T12:26:57;9.60;;;2.40;;
3343;SDS011;1685;53.104;8.228;2023-03-14T12:29:25;10.20;;;2.27;;
3343;SDS011;1685;53.104;8.228;2023-03-14T12:32:09;16.10;;;2.67;;
3343;SDS011;1685;53.104;8.228;2023-03-14T12:34:48;12.07;;;2.70;;
3343;SDS011;1685;53.104;8.228;2023-03-14T12:40:03;14.90;;;2.40;;
3343;SDS011;1685;53.104;8.228;2023-03-14T12:42:54;6.03;;;2.53;;
3343;SDS011;1685;53.104;8.228;2023-03-14T12:45:25;11.23;;;2.17;;
3343;SDS011;1685;53.104;8.228;2023-03-14T12:47:55;9.73;;;2.50;;
3343;SDS011;1685;53.104;8.228;2023-03-14T12:50:30;4.93;;;2.40;;
3343;SDS011;1685;53.104;8.228;2023-03-14T12:55:57;7.50;;;2.20;;
3343;SDS011;1685;53.104;8.228;2023-03-14T12:58:32;9.40;;;3.10;;
3343;SDS011;1685;53.104;8.228;2023-03-14T13:01:05;9.47;;;3.20;;
3343;SDS011;1685;53.104;8.228;2023-03-14T13:03:43;9.40;;;2.47;;
3343;SDS011;1685;53.104;8.228;2023-03-14T13:06:12;5.00;;;2.00;;
3343;SDS011;1685;53.104;8.228;2023-03-14T13:08:40;4.23;;;1.97;;
3343;SDS011;1685;53.104;8.228;2023-03-14T13:11:09;5.10;;;1.67;;
3343;SDS011;1685;53.104;8.228;2023-03-14T13:13:42;3.17;;;1.80;;
3343;SDS011;1685;53.104;8.228;2023-03-14T13:16:14;13.33;;;1.80;;
3343;SDS011;1685;53.104;8.228;2023-03-14T13:18:43;2.83;;;1.30;;
3343;SDS011;1685;53.104;8.228;2023-03-14T13:21:12;2.70;;;1.67;;
3343;SDS011;1685;53.104;8.228;2023-03-14T13:23:53;9.67;;;1.90;;
3343;SDS011;1685;53.104;8.228;2023-03-14T13:26:22;7.27;;;2.13;;
3343;SDS011;1685;53.104;8.228;2023-03-14T13:28:53;6.40;;;2.10;;
3343;SDS011;1685;53.104;8.228;2023-03-14T13:31:21;8.50;;;1.80;;
3343;SDS011;1685;53.104;8.228;2023-03-14T13:33:59;13.87;;;2.43;;
3343;SDS011;1685;53.104;8.228;2023-03-14T13:36:26;8.80;;;2.00;;
3343;SDS011;1685;53.104;8.228;2023-03-14T13:38:57;10.50;;;2.27;;
3343;SDS011;1685;53.104;8.228;2023-03-14T13:41:26;10.07;;;2.10;;
3343;SDS011;1685;53.104;8.228;2023-03-14T13:43:58;5.63;;;2.10;;
3343;SDS011;1685;53.104;8.228;2023-03-14T13:46:29;12.27;;;2.53;;
3343;SDS011;1685;53.104;8.228;2023-03-14T13:48:57;9.53;;;2.40;;
3343;SDS011;1685;53.104;8.228;2023-03-14T13:51:26;12.23;;;2.50;;
3343;SDS011;1685;53.104;8.228;2023-03-14T13:53:56;14.53;;;2.30;;
3343;SDS011;1685;53.104;8.228;2023-03-14T13:56:25;8.13;;;2.30;;
3343;SDS011;1685;53.104;8.228;2023-03-14T13:58:54;11.53;;;2.50;;
3343;SDS011;1685;53.104;8.228;2023-03-14T14:01:23;10.40;;;2.00;;
3343;SDS011;1685;53.104;8.228;2023-03-14T14:03:52;6.97;;;1.97;;
3343;SDS011;1685;53.104;8.228;2023-03-14T14:06:31;6.30;;;2.23;;
3343;SDS011;1685;53.104;8.228;2023-03-14T14:09:00;5.80;;;2.73;;
3343;SDS011;1685;53.104;8.228;2023-03-14T14:11:41;15.10;;;3.23;;
3343;SDS011;1685;53.104;8.228;2023-03-14T14:14:10;14.43;;;2.40;;
3343;SDS011;1685;53.104;8.228;2023-03-14T14:16:43;11.27;;;2.00;;
3343;SDS011;1685;53.104;8.228;2023-03-14T14:19:11;7.57;;;2.50;;
3343;SDS011;1685;53.104;8.228;2023-03-14T14:21:39;5.20;;;2.90;;
3343;SDS011;1685;53.104;8.228;2023-03-14T14:24:07;10.03;;;2.93;;
3343;SDS011;1685;53.104;8.228;2023-03-14T14:26:39;7.97;;;2.07;;
3343;SDS011;1685;53.104;8.228;2023-03-14T14:29:16;8.90;;;2.20;;
3343;SDS011;1685;53.104;8.228;2023-03-14T14:32:00;8.83;;;2.00;;
3343;SDS011;1685;53.104;8.228;2023-03-14T14:34:28;13.10;;;1.73;;
3343;SDS011;1685;53.104;8.228;2023-03-14T14:36:55;9.90;;;2.40;;
3343;SDS011;1685;53.104;8.228;2023-03-14T14:39:24;6.23;;;1.70;;
3343;SDS011;1685;53.104;8.228;2023-03-14T14:41:53;10.80;;;2.20;;
3343;SDS011;1685;53.104;8.228;2023-03-14T14:44:21;7.57;;;2.30;;
3343;SDS011;1685;53.104;8.228;2023-03-14T14:46:54;9.13;;;2.57;;
3343;SDS011;1685;53.104;8.228;2023-03-14T14:49:28;3.10;;;1.13;;
3343;SDS011;1685;53.104;8.228;2023-03-14T14:51:59;5.53;;;2.00;;
3343;SDS011;1685;53.104;8.228;2023-03-14T14:54:33;11.80;;;2.30;;
3343;SDS011;1685;53.104;8.228;2023-03-14T14:57:04;15.83;;;2.10;;
3343;SDS011;1685;53.104;8.228;2023-03-14T14:59:41;5.40;;;1.90;;
3343;SDS011;1685;53.104;8.228;2023-03-14T15:02:15;3.90;;;2.10;;
3343;SDS011;1685;53.104;8.228;2023-03-14T15:04:54;11.43;;;2.67;;
3343;SDS011;1685;53.104;8.228;2023-03-14T15:07:21;3.50;;;2.30;;
3343;SDS011;1685;53.104;8.228;2023-03-14T15:09:48;13.30;;;2.37;;
3343;SDS011;1685;53.104;8.228;2023-03-14T15:12:15;9.10;;;2.33;;
3343;SDS011;1685;53.104;8.228;2023-03-14T15:14:42;3.87;;;1.37;;
3343;SDS011;1685;53.104;8.228;2023-03-14T15:17:10;5.60;;;1.67;;
3343;SDS011;1685;53.104;8.228;2023-03-14T15:19:37;5.47;;;1.67;;
3343;SDS011;1685;53.104;8.228;2023-03-14T15:22:07;5.20;;;2.07;;
3343;SDS011;1685;53.104;8.228;2023-03-14T15:24:37;3.30;;;1.70;;
3343;SDS011;1685;53.104;8.228;2023-03-14T15:27:05;5.43;;;2.00;;
3343;SDS011;1685;53.104;8.228;2023-03-14T15:29:36;5.00;;;2.40;;